Carnival Pride — H3VU — position and weather

sailwx.info

Track history (hours):
 
Tides and Currents Weather Stations Pressure Air Temp Water Temp Dewpoint Dewpoint Depression Visibility Wind Speed Wind Dir Waves Ship Positions

Carnival Pride

Operator: Carnival Cruise Lines

Last reported at 2017-Dec-11 11:00 UTC. Time now 2017-Dec-12 04:31 UTC.
Position N 36°18' W 075°24'.

Type: Ship. MMSI: 354215000.

Wind from 250 at 36 knots

Barometer 1019.6 mb
Air temperature 5.0 ° C
Visibility: greater than 10.8 NM
Dewpoint -0.3 ° C
Water temperature 22.0 ° C

Date/timePositionNaut miles runAvg speedWind from/ knotsBaromVisibWave heightAir tempDewpointWater temp
2017-Dec-11 11:00N 36°18' W 075°24'3521.9 250 / 361019.610.8 5.0-0.322.0
2017-Dec-11 09:24N 36°48' W 075°46'410.7
2017-Dec-11 09:00N 36°51' W 075°50'510.7
2017-Dec-11 08:30N 36°54' W 075°55'510.5
2017-Dec-11 08:00N 36°58' W 075°60'713.7
2017-Dec-11 07:30N 37°03' W 076°05'5317.9
2017-Dec-11 04:34N 37°56' W 076°11'419.5
2017-Dec-11 04:21N 37°60' W 076°12'719.7
2017-Dec-11 04:00N 38°07' W 076°13'1019.5
2017-Dec-11 03:30N 38°16' W 076°17'1019.5
2017-Dec-11 02:58N 38°26' W 076°21'1518.3
2017-Dec-11 02:09N 38°40' W 076°25'318.8
2017-Dec-11 02:00N 38°43' W 076°26'918.6
2017-Dec-11 01:30N 38°52' W 076°24'714.1
2017-Dec-11 01:00N 38°59' W 076°23'815.6
2017-Dec-11 00:31N 39°07' W 076°24'612.3
2017-Dec-11 00:01N 39°12' W 076°29'510.8
2017-Dec-10 23:30N 39°15' W 076°34'2 3.0
2017-Dec-10 23:00N 39°16' W 076°36'0 0.0
2017-Dec-10 22:30N 39°16' W 076°36'0 0.0
2017-Dec-10 22:00N 39°16' W 076°36'0 0.0
2017-Dec-10 21:30N 39°16' W 076°36'0 0.0
2017-Dec-10 21:00N 39°16' W 076°36'0 0.0
2017-Dec-10 20:30N 39°16' W 076°36'0 0.0
2017-Dec-10 20:00N 39°16' W 076°36'0 0.0
2017-Dec-10 19:30N 39°16' W 076°36'0 0.0
2017-Dec-10 19:00N 39°16' W 076°36'0 0.0
2017-Dec-10 18:30N 39°16' W 076°36'0 0.0
2017-Dec-10 18:00N 39°16' W 076°36'0 0.0
2017-Dec-10 17:30N 39°16' W 076°36'0 0.0
2017-Dec-10 17:00N 39°16' W 076°36'0 0.0
2017-Dec-10 16:30N 39°16' W 076°36'0 0.0
2017-Dec-10 16:00N 39°16' W 076°36'0 0.0
2017-Dec-10 15:30N 39°16' W 076°36'0 0.0
2017-Dec-10 15:00N 39°16' W 076°36'0 0.0
2017-Dec-10 14:30N 39°16' W 076°36'0 0.3
2017-Dec-10 14:00N 39°16' W 076°36'3 5.9
2017-Dec-10 13:30N 39°14' W 076°33'611.4
2017-Dec-10 13:00N 39°11' W 076°27'713.6
2017-Dec-10 12:30N 39°05' W 076°24'714.5
2017-Dec-10 12:00N 38°57' W 076°23'1019.3
2017-Dec-10 11:30N 38°48' W 076°25'3720.7
2017-Dec-10 09:42N 38°11' W 076°14'621.6
2017-Dec-10 09:25N 38°05' W 076°13'6119.6
2017-Dec-10 06:19N 37°05' W 076°06'619.5
2017-Dec-10 06:00N 36°60' W 076°01'611.9
2017-Dec-10 05:31N 36°56' W 075°56'510.1
2017-Dec-10 05:00N 36°52' W 075°51'510.7
2017-Dec-10 04:30N 36°50' W 075°46'  
2017-Dec-05 11:00N 32°18' W 079°06'31512.3 200 / 121024.010.8 23.018.324.0
2017-Dec-04 09:23N 36°45' W 075°43'410.0
2017-Dec-04 08:57N 36°48' W 075°46'510.3
2017-Dec-04 08:30N 36°51' W 075°51'510.2
2017-Dec-04 08:00N 36°54' W 075°55'510.0
2017-Dec-04 07:30N 36°58' W 075°60'917.4
2017-Dec-04 06:59N 37°05' W 076°06'3123.6
2017-Dec-04 05:41N 37°36' W 076°05'2012.7
2017-Dec-04 04:06N 37°56' W 076°10'1034.4
2017-Dec-04 03:48N 38°05' W 076°13'1726.7
2017-Dec-04 03:10N 38°22' W 076°19'1615.8
2017-Dec-04 02:11N 38°36' W 076°26'2 6.9
2017-Dec-04 01:53N 38°38' W 076°25'820.5
2017-Dec-04 01:30N 38°46' W 076°26'1020.5
2017-Dec-04 01:00N 38°56' W 076°23'816.7
2017-Dec-04 00:30N 39°04' W 076°24'714.1
2017-Dec-04 00:01N 39°11' W 076°27'611.6
2017-Dec-03 23:30N 39°14' W 076°33'3 5.0
2017-Dec-03 22:58N 39°16' W 076°36'0 0.1
2017-Dec-03 22:28N 39°16' W 076°36'0 0.0
2017-Dec-03 21:58N 39°16' W 076°36'0 0.0
2017-Dec-03 21:25N 39°16' W 076°36'0 0.0
2017-Dec-03 20:58N 39°16' W 076°36'0 0.0
2017-Dec-03 20:28N 39°16' W 076°36'0 0.0
2017-Dec-03 19:58N 39°16' W 076°36'0 0.0
2017-Dec-03 19:28N 39°16' W 076°36'0 0.0
2017-Dec-03 18:58N 39°16' W 076°36'0 0.0
2017-Dec-03 18:28N 39°16' W 076°36'0 0.0
2017-Dec-03 17:58N 39°16' W 076°36'0 0.0
2017-Dec-03 17:28N 39°16' W 076°36'0 0.0
2017-Dec-03 16:58N 39°16' W 076°36'0 0.0
2017-Dec-03 16:28N 39°16' W 076°36'0 0.0
2017-Dec-03 15:58N 39°16' W 076°36'0 0.0
2017-Dec-03 15:28N 39°16' W 076°36'0 0.0
2017-Dec-03 14:58N 39°16' W 076°36'0 0.0
2017-Dec-03 14:28N 39°16' W 076°36'0 0.0
2017-Dec-03 13:58N 39°16' W 076°36'0 0.0
2017-Dec-03 13:28N 39°16' W 076°36'0 0.0
2017-Dec-03 13:00N 39°16' W 076°36'1 2.6
2017-Dec-03 12:31N 39°15' W 076°34'5 9.4
2017-Dec-03 12:01N 39°12' W 076°30'611.6
2017-Dec-03 11:30N 39°08' W 076°24'714.8
2017-Dec-03 11:00N 39°01' W 076°23'917.8
2017-Dec-03 10:30N 38°52' W 076°24'1121.2
2017-Dec-03 10:00N 38°42' W 076°26'2729.0
2017-Dec-03 09:04N 38°16' W 076°17'0 0.9
2017-Dec-03 08:52N 38°15' W 076°16'1328.7
2017-Dec-03 08:24N 38°02' W 076°13'1414.9
2017-Dec-03 07:29N 37°49' W 076°10'4016.6
2017-Dec-03 05:04N 37°09' W 076°09'118.9
2017-Dec-03 04:59N 37°07' W 076°08'918.6
2017-Dec-03 04:30N 37°00' W 076°02'611.8
2017-Dec-03 04:00N 36°56' W 075°56'510.0
2017-Dec-03 03:30N 36°53' W 075°52'610.7
2017-Dec-03 02:59N 36°50' W 075°46'  
Track history (hours):
 
Tides and Currents Weather Stations Pressure Air Temp Water Temp Dewpoint Dewpoint Depression Visibility Wind Speed Wind Dir Waves Ship Positions

Carnival Pride

Operator: Carnival Cruise Lines

Last reported at 2017-Dec-11 11:00 UTC. Time now 2017-Dec-12 04:31 UTC.
Position N 36°18' W 075°24'.

Type: Ship. MMSI: 354215000.

Wind from 250 at 36 knots

Barometer 1019.6 mb
Air temperature 5.0 ° C
Visibility: greater than 10.8 NM
Dewpoint -0.3 ° C
Water temperature 22.0 ° C

Date/timePositionNaut miles runAvg speedWind from/ knotsBaromVisibWave heightAir tempDewpointWater temp
2017-Dec-11 11:00N 36°18' W 075°24'3521.9 250 / 361019.610.8 5.0-0.322.0
2017-Dec-11 09:24N 36°48' W 075°46'410.7
2017-Dec-11 09:00N 36°51' W 075°50'510.7
2017-Dec-11 08:30N 36°54' W 075°55'510.5
2017-Dec-11 08:00N 36°58' W 075°60'713.7
2017-Dec-11 07:30N 37°03' W 076°05'5317.9
2017-Dec-11 04:34N 37°56' W 076°11'419.5
2017-Dec-11 04:21N 37°60' W 076°12'719.7
2017-Dec-11 04:00N 38°07' W 076°13'1019.5
2017-Dec-11 03:30N 38°16' W 076°17'1019.5
2017-Dec-11 02:58N 38°26' W 076°21'1518.3
2017-Dec-11 02:09N 38°40' W 076°25'318.8
2017-Dec-11 02:00N 38°43' W 076°26'918.6
2017-Dec-11 01:30N 38°52' W 076°24'714.1
2017-Dec-11 01:00N 38°59' W 076°23'815.6
2017-Dec-11 00:31N 39°07' W 076°24'612.3
2017-Dec-11 00:01N 39°12' W 076°29'510.8
2017-Dec-10 23:30N 39°15' W 076°34'2 3.0
2017-Dec-10 23:00N 39°16' W 076°36'0 0.0
2017-Dec-10 22:30N 39°16' W 076°36'0 0.0
2017-Dec-10 22:00N 39°16' W 076°36'0 0.0
2017-Dec-10 21:30N 39°16' W 076°36'0 0.0
2017-Dec-10 21:00N 39°16' W 076°36'0 0.0
2017-Dec-10 20:30N 39°16' W 076°36'0 0.0
2017-Dec-10 20:00N 39°16' W 076°36'0 0.0
2017-Dec-10 19:30N 39°16' W 076°36'0 0.0
2017-Dec-10 19:00N 39°16' W 076°36'0 0.0
2017-Dec-10 18:30N 39°16' W 076°36'0 0.0
2017-Dec-10 18:00N 39°16' W 076°36'0 0.0
2017-Dec-10 17:30N 39°16' W 076°36'0 0.0
2017-Dec-10 17:00N 39°16' W 076°36'0 0.0
2017-Dec-10 16:30N 39°16' W 076°36'0 0.0
2017-Dec-10 16:00N 39°16' W 076°36'0 0.0
2017-Dec-10 15:30N 39°16' W 076°36'0 0.0
2017-Dec-10 15:00N 39°16' W 076°36'0 0.0
2017-Dec-10 14:30N 39°16' W 076°36'0 0.3
2017-Dec-10 14:00N 39°16' W 076°36'3 5.9
2017-Dec-10 13:30N 39°14' W 076°33'611.4
2017-Dec-10 13:00N 39°11' W 076°27'713.6
2017-Dec-10 12:30N 39°05' W 076°24'714.5
2017-Dec-10 12:00N 38°57' W 076°23'1019.3
2017-Dec-10 11:30N 38°48' W 076°25'3720.7
2017-Dec-10 09:42N 38°11' W 076°14'621.6
2017-Dec-10 09:25N 38°05' W 076°13'6119.6
2017-Dec-10 06:19N 37°05' W 076°06'619.5
2017-Dec-10 06:00N 36°60' W 076°01'611.9
2017-Dec-10 05:31N 36°56' W 075°56'510.1
2017-Dec-10 05:00N 36°52' W 075°51'510.7
2017-Dec-10 04:30N 36°50' W 075°46'  
2017-Dec-05 11:00N 32°18' W 079°06'31512.3 200 / 121024.010.8 23.018.324.0
2017-Dec-04 09:23N 36°45' W 075°43'410.0
2017-Dec-04 08:57N 36°48' W 075°46'510.3
2017-Dec-04 08:30N 36°51' W 075°51'510.2
2017-Dec-04 08:00N 36°54' W 075°55'510.0
2017-Dec-04 07:30N 36°58' W 075°60'917.4
2017-Dec-04 06:59N 37°05' W 076°06'3123.6
2017-Dec-04 05:41N 37°36' W 076°05'2012.7
2017-Dec-04 04:06N 37°56' W 076°10'1034.4
2017-Dec-04 03:48N 38°05' W 076°13'1726.7
2017-Dec-04 03:10N 38°22' W 076°19'1615.8
2017-Dec-04 02:11N 38°36' W 076°26'2 6.9
2017-Dec-04 01:53N 38°38' W 076°25'820.5
2017-Dec-04 01:30N 38°46' W 076°26'1020.5
2017-Dec-04 01:00N 38°56' W 076°23'816.7
2017-Dec-04 00:30N 39°04' W 076°24'714.1
2017-Dec-04 00:01N 39°11' W 076°27'611.6
2017-Dec-03 23:30N 39°14' W 076°33'3 5.0
2017-Dec-03 22:58N 39°16' W 076°36'0 0.1
2017-Dec-03 22:28N 39°16' W 076°36'0 0.0
2017-Dec-03 21:58N 39°16' W 076°36'0 0.0
2017-Dec-03 21:25N 39°16' W 076°36'0 0.0
2017-Dec-03 20:58N 39°16' W 076°36'0 0.0
2017-Dec-03 20:28N 39°16' W 076°36'0 0.0
2017-Dec-03 19:58N 39°16' W 076°36'0 0.0
2017-Dec-03 19:28N 39°16' W 076°36'0 0.0
2017-Dec-03 18:58N 39°16' W 076°36'0 0.0
2017-Dec-03 18:28N 39°16' W 076°36'0 0.0
2017-Dec-03 17:58N 39°16' W 076°36'0 0.0
2017-Dec-03 17:28N 39°16' W 076°36'0 0.0
2017-Dec-03 16:58N 39°16' W 076°36'0 0.0
2017-Dec-03 16:28N 39°16' W 076°36'0 0.0
2017-Dec-03 15:58N 39°16' W 076°36'0 0.0
2017-Dec-03 15:28N 39°16' W 076°36'0 0.0
2017-Dec-03 14:58N 39°16' W 076°36'0 0.0
2017-Dec-03 14:28N 39°16' W 076°36'0 0.0
2017-Dec-03 13:58N 39°16' W 076°36'0 0.0
2017-Dec-03 13:28N 39°16' W 076°36'0 0.0
2017-Dec-03 13:00N 39°16' W 076°36'1 2.6
2017-Dec-03 12:31N 39°15' W 076°34'5 9.4
2017-Dec-03 12:01N 39°12' W 076°30'611.6
2017-Dec-03 11:30N 39°08' W 076°24'714.8
2017-Dec-03 11:00N 39°01' W 076°23'917.8
2017-Dec-03 10:30N 38°52' W 076°24'1121.2
2017-Dec-03 10:00N 38°42' W 076°26'2729.0
2017-Dec-03 09:04N 38°16' W 076°17'0 0.9
2017-Dec-03 08:52N 38°15' W 076°16'1328.7
2017-Dec-03 08:24N 38°02' W 076°13'1414.9
2017-Dec-03 07:29N 37°49' W 076°10'4016.6
2017-Dec-03 05:04N 37°09' W 076°09'118.9
2017-Dec-03 04:59N 37°07' W 076°08'918.6
2017-Dec-03 04:30N 37°00' W 076°02'611.8
2017-Dec-03 04:00N 36°56' W 075°56'510.0
2017-Dec-03 03:30N 36°53' W 075°52'610.7
2017-Dec-03 02:59N 36°50' W 075°46'  

Dump ship's entire track history